createdAt,value
2022-10-24T00:01:35.534Z,11.52
2022-10-24T00:04:03.371Z,10.82
2022-10-24T00:06:32.500Z,12.07
2022-10-24T00:09:00.153Z,13.18
2022-10-24T00:11:28.554Z,12.85
2022-10-24T00:13:56.798Z,11.40
2022-10-24T00:16:24.424Z,11.27
2022-10-24T00:18:53.608Z,13.98
2022-10-24T00:21:21.628Z,10.75
2022-10-24T00:23:55.773Z,14.15
2022-10-24T00:26:23.320Z,13.93
2022-10-24T00:28:52.558Z,14.07
2022-10-24T00:31:24.459Z,12.82
2022-10-24T00:33:52.160Z,12.55
2022-10-24T00:36:21.757Z,13.23
2022-10-24T00:38:51.641Z,11.32
2022-10-24T00:41:24.867Z,9.00
2022-10-24T00:44:13.778Z,12.32
2022-10-24T00:47:02.083Z,12.43
2022-10-24T00:49:32.375Z,11.23
2022-10-24T00:52:04.380Z,12.20
2022-10-24T00:54:32.165Z,11.57
2022-10-24T00:57:18.433Z,12.50
2022-10-24T00:59:50.915Z,10.90
2022-10-24T01:02:18.585Z,13.98
2022-10-24T01:04:48.552Z,15.93
2022-10-24T01:07:23.711Z,19.10
2022-10-24T01:10:16.638Z,21.65
2022-10-24T01:12:50.210Z,20.67
2022-10-24T01:15:26.868Z,21.00
2022-10-24T01:18:01.727Z,14.82
2022-10-24T01:20:44.787Z,13.82
2022-10-24T01:23:40.769Z,19.88
2022-10-24T01:26:45.906Z,19.20
2022-10-24T01:30:00.441Z,22.92
2022-10-24T01:32:41.170Z,22.93
2022-10-24T01:35:14.860Z,21.60
2022-10-24T01:38:09.343Z,24.15
2022-10-24T01:40:50.937Z,26.55
2022-10-24T01:43:22.637Z,20.93
2022-10-24T01:45:53.803Z,23.13
2022-10-24T01:50:50.181Z,28.70
2022-10-24T01:53:22.521Z,24.25
2022-10-24T01:55:52.764Z,30.73
2022-10-24T01:58:20.390Z,31.30
2022-10-24T02:00:48.390Z,33.30
2022-10-24T02:03:23.512Z,31.65
2022-10-24T02:05:54.205Z,27.40
2022-10-24T02:08:31.231Z,36.20
2022-10-24T02:11:01.733Z,28.40
2022-10-24T02:13:35.113Z,23.30
2022-10-24T02:16:05.171Z,27.92
2022-10-24T02:18:33.331Z,35.63
2022-10-24T02:21:39.585Z,31.25
2022-10-24T02:24:17.421Z,29.08
2022-10-24T02:26:52.552Z,32.72
2022-10-24T02:29:40.526Z,31.95
2022-10-24T02:32:11.454Z,28.45
2022-10-24T02:34:39.348Z,30.50
2022-10-24T02:37:06.987Z,29.83
2022-10-24T02:39:34.577Z,30.60
2022-10-24T02:42:03.071Z,27.13
2022-10-24T02:44:30.728Z,29.85
2022-10-24T02:46:59.698Z,33.72
2022-10-24T02:49:28.259Z,34.53
2022-10-24T02:51:56.782Z,32.63
2022-10-24T02:54:24.824Z,39.92
2022-10-24T02:56:53.454Z,42.92
2022-10-24T02:59:21.035Z,41.55
2022-10-24T03:01:48.687Z,36.03
2022-10-24T03:04:16.680Z,33.78
2022-10-24T03:06:44.347Z,47.67
2022-10-24T03:09:15.379Z,48.15
2022-10-24T03:11:43.024Z,50.33
2022-10-24T03:14:11.113Z,41.47
2022-10-24T03:16:39.861Z,43.55
2022-10-24T03:19:08.620Z,42.33
2022-10-24T03:21:36.967Z,53.10
2022-10-24T03:24:04.929Z,42.22
2022-10-24T03:26:34.641Z,40.13
2022-10-24T03:29:02.368Z,45.13
2022-10-24T03:31:31.776Z,34.22
2022-10-24T03:33:59.377Z,44.47
2022-10-24T03:36:27.558Z,37.55
2022-10-24T03:38:55.265Z,37.90
2022-10-24T03:41:22.854Z,36.95
2022-10-24T03:43:51.252Z,35.42
2022-10-24T03:46:19.731Z,42.60
2022-10-24T03:48:47.393Z,38.50
2022-10-24T03:51:15.815Z,42.95
2022-10-24T03:53:43.487Z,33.78
2022-10-24T03:56:11.359Z,37.22
2022-10-24T03:58:38.976Z,43.30
2022-10-24T04:01:06.785Z,27.02
2022-10-24T04:03:34.408Z,31.27
2022-10-24T04:06:02.047Z,31.45
2022-10-24T04:08:31.835Z,26.77
2022-10-24T04:11:00.996Z,29.45
2022-10-24T04:13:31.708Z,27.05
2022-10-24T04:16:01.189Z,23.27
2022-10-24T04:18:29.516Z,25.85
2022-10-24T04:20:57.186Z,19.90
2022-10-24T04:23:25.761Z,22.27
2022-10-24T04:25:53.766Z,22.23
2022-10-24T04:28:21.514Z,21.05
2022-10-24T04:30:57.259Z,25.35
2022-10-24T04:33:25.011Z,23.70
2022-10-24T04:35:52.711Z,27.02
2022-10-24T04:38:20.612Z,22.70
2022-10-24T04:40:52.606Z,25.50
2022-10-24T04:43:20.702Z,20.33
2022-10-24T04:45:48.443Z,21.77
2022-10-24T04:48:16.219Z,24.80
2022-10-24T04:50:45.175Z,21.95
2022-10-24T04:53:14.261Z,19.98
2022-10-24T04:55:43.292Z,22.55
2022-10-24T04:58:10.963Z,21.23
2022-10-24T05:00:39.565Z,22.30
2022-10-24T05:03:07.153Z,17.77
2022-10-24T05:05:35.240Z,21.73
2022-10-24T05:08:03.334Z,20.08
2022-10-24T05:10:33.198Z,17.45
2022-10-24T05:13:14.283Z,21.95
2022-10-24T05:15:43.786Z,19.25
2022-10-24T05:18:11.542Z,18.05
2022-10-24T05:23:09.649Z,14.38
2022-10-24T05:25:37.237Z,13.38
2022-10-24T05:28:05.936Z,15.57
2022-10-24T05:30:34.130Z,13.40
2022-10-24T05:33:01.962Z,13.98
2022-10-24T05:35:29.974Z,15.95
2022-10-24T05:37:57.592Z,14.38
2022-10-24T05:40:25.300Z,13.50
2022-10-24T05:42:53.284Z,14.27
2022-10-24T05:45:21.240Z,21.35
2022-10-24T05:47:49.151Z,20.67
2022-10-24T05:50:17.391Z,16.98
2022-10-24T05:52:47.141Z,21.10
2022-10-24T05:55:17.896Z,20.88
2022-10-24T05:57:46.332Z,22.10
2022-10-24T06:00:15.207Z,20.83
2022-10-24T06:02:43.356Z,37.15
2022-10-24T06:05:11.610Z,24.13
2022-10-24T06:07:39.791Z,15.00
2022-10-24T06:10:10.597Z,15.82
2022-10-24T06:12:39.539Z,13.25
2022-10-24T06:15:08.740Z,14.27
2022-10-24T06:17:36.486Z,16.08
2022-10-24T06:20:04.704Z,17.10
2022-10-24T06:22:33.080Z,16.38
2022-10-24T06:25:01.757Z,13.02
2022-10-24T06:27:29.583Z,17.17
2022-10-24T06:29:59.153Z,10.07
2022-10-24T06:32:27.001Z,13.27
2022-10-24T06:34:54.582Z,15.45
2022-10-24T06:37:23.044Z,13.88
2022-10-24T06:39:50.581Z,14.10
2022-10-24T06:42:18.196Z,13.15
2022-10-24T06:44:46.373Z,12.32
2022-10-24T06:47:14.061Z,14.45
2022-10-24T06:49:42.989Z,11.43
2022-10-24T06:52:11.050Z,12.75
2022-10-24T06:54:43.899Z,13.32
2022-10-24T06:57:11.536Z,13.23
2022-10-24T06:59:39.091Z,14.45
2022-10-24T07:02:07.248Z,9.63
2022-10-24T07:04:35.240Z,16.25
2022-10-24T07:07:03.463Z,15.05
2022-10-24T07:09:31.189Z,13.48
2022-10-24T07:11:59.584Z,14.35
2022-10-24T07:14:30.203Z,12.05
2022-10-24T07:16:59.666Z,14.10
2022-10-24T07:19:27.302Z,14.45
2022-10-24T07:21:55.544Z,11.25
2022-10-24T07:24:23.286Z,8.13
2022-10-24T07:26:50.990Z,11.77
2022-10-24T07:29:22.888Z,8.82
2022-10-24T07:31:50.790Z,11.88
2022-10-24T07:34:18.506Z,13.07
2022-10-24T07:36:46.309Z,10.70
2022-10-24T07:39:14.309Z,10.57
2022-10-24T07:41:43.162Z,12.77
2022-10-24T07:44:11.431Z,12.48
2022-10-24T07:46:43.162Z,10.18
2022-10-24T07:49:13.197Z,9.38
2022-10-24T07:51:41.786Z,8.77
2022-10-24T07:54:09.835Z,13.45
2022-10-24T07:56:37.957Z,9.00
2022-10-24T07:59:09.409Z,9.52
2022-10-24T08:01:41.725Z,7.47
2022-10-24T08:04:10.439Z,7.95
2022-10-24T08:06:38.168Z,7.88
2022-10-24T08:09:06.238Z,8.82
2022-10-24T08:11:34.528Z,8.82
2022-10-24T08:14:02.656Z,8.50
2022-10-24T08:16:30.552Z,6.95
2022-10-24T08:18:58.342Z,8.27
2022-10-24T08:21:26.939Z,8.13
2022-10-24T08:23:55.870Z,8.45
2022-10-24T08:26:24.750Z,9.88
2022-10-24T08:28:52.530Z,7.45
2022-10-24T08:31:21.642Z,8.07
2022-10-24T08:33:51.275Z,8.73
2022-10-24T08:36:23.734Z,8.13
2022-10-24T08:38:51.889Z,7.43
2022-10-24T08:41:30.060Z,8.52
2022-10-24T08:44:01.003Z,6.68
2022-10-24T08:46:44.408Z,6.63
2022-10-24T08:49:29.556Z,6.50
2022-10-24T08:52:01.160Z,7.47
2022-10-24T08:54:39.383Z,8.30
2022-10-24T08:57:06.956Z,7.00
2022-10-24T08:59:36.279Z,6.20
2022-10-24T09:02:26.040Z,5.00
2022-10-24T09:04:57.556Z,5.43
2022-10-24T09:07:29.353Z,7.10
2022-10-24T09:10:45.041Z,6.75
2022-10-24T09:13:14.740Z,3.97
2022-10-24T09:15:45.284Z,4.55
2022-10-24T09:18:24.857Z,5.25
2022-10-24T09:20:54.657Z,5.07
2022-10-24T09:23:26.375Z,4.82
2022-10-24T09:26:00.616Z,4.93
2022-10-24T09:28:38.329Z,3.47
2022-10-24T09:31:20.259Z,3.47
2022-10-24T09:33:49.524Z,8.43
2022-10-24T09:36:20.302Z,4.45
2022-10-24T09:38:49.351Z,13.23
2022-10-24T09:41:22.753Z,3.97
2022-10-24T09:43:56.979Z,3.25
2022-10-24T09:46:29.440Z,4.43
2022-10-24T09:49:04.128Z,16.17
2022-10-24T09:51:41.383Z,10.93
2022-10-24T09:54:21.424Z,16.23
2022-10-24T09:56:55.103Z,8.50
2022-10-24T09:59:44.457Z,4.00
2022-10-24T10:02:20.165Z,3.85
2022-10-24T10:04:49.516Z,5.05
2022-10-24T10:07:19.277Z,7.97
2022-10-24T10:10:00.587Z,6.32
2022-10-24T10:12:34.901Z,3.95
2022-10-24T10:15:23.545Z,4.28
2022-10-24T10:18:05.847Z,5.40
2022-10-24T10:20:43.082Z,5.85
2022-10-24T10:23:17.671Z,7.38
2022-10-24T10:25:45.551Z,5.45
2022-10-24T10:28:23.545Z,8.07
2022-10-24T10:30:56.037Z,5.05
2022-10-24T10:36:20.059Z,4.53
2022-10-24T10:38:58.002Z,5.30
2022-10-24T10:41:40.262Z,4.60
2022-10-24T10:44:20.853Z,7.88
2022-10-24T10:47:04.497Z,5.80
2022-10-24T10:49:40.812Z,5.70
2022-10-24T10:52:26.092Z,4.25
2022-10-24T10:55:02.773Z,6.20
2022-10-24T10:57:36.857Z,3.20
2022-10-24T11:00:31.196Z,4.93
2022-10-24T11:03:17.605Z,3.38
2022-10-24T11:06:09.120Z,3.47
2022-10-24T11:08:44.746Z,5.63
2022-10-24T11:11:17.825Z,5.55
2022-10-24T11:13:50.141Z,3.63
2022-10-24T11:16:22.944Z,4.00
2022-10-24T11:18:52.225Z,5.65
2022-10-24T11:21:21.391Z,4.00
2022-10-24T11:24:01.890Z,4.38
2022-10-24T11:26:42.533Z,4.22
2022-10-24T11:29:35.245Z,3.75
2022-10-24T11:34:43.181Z,10.48
2022-10-24T11:37:39.397Z,6.40
2022-10-24T11:40:12.166Z,5.55
2022-10-24T11:43:07.570Z,7.05
2022-10-24T11:45:53.886Z,4.40
2022-10-24T11:48:42.678Z,3.42
2022-10-24T11:51:42.490Z,3.95
2022-10-24T11:54:32.212Z,2.22
2022-10-24T11:59:46.840Z,4.45
2022-10-24T12:02:49.153Z,4.00
2022-10-24T12:05:46.265Z,3.25
2022-10-24T12:08:34.290Z,3.15
2022-10-24T12:11:12.798Z,3.80
2022-10-24T12:14:11.182Z,2.78
2022-10-24T12:17:00.921Z,2.63
2022-10-24T12:19:29.071Z,5.68
2022-10-24T12:22:01.781Z,4.30
2022-10-24T12:24:34.722Z,4.15
2022-10-24T12:27:04.191Z,2.45
2022-10-24T12:29:33.858Z,4.90
2022-10-24T12:32:33.337Z,3.53
2022-10-24T12:35:28.854Z,3.00
2022-10-24T12:37:50.317Z,2.85
2022-10-24T12:40:45.351Z,4.68
2022-10-24T12:43:32.655Z,3.58
2022-10-24T12:46:21.641Z,4.20
2022-10-24T12:48:59.260Z,8.20
2022-10-24T12:51:36.571Z,4.05
2022-10-24T12:54:13.642Z,2.83
2022-10-24T12:56:50.469Z,4.93
2022-10-24T12:59:21.869Z,3.33
2022-10-24T13:01:50.796Z,2.95
2022-10-24T13:05:06.516Z,6.75
2022-10-24T13:07:46.114Z,4.60
2022-10-24T13:10:31.977Z,4.38
2022-10-24T13:13:11.922Z,3.70
2022-10-24T13:15:43.421Z,4.18
2022-10-24T13:18:35.874Z,3.03
2022-10-24T13:21:16.548Z,3.28
2022-10-24T13:23:46.274Z,4.50
2022-10-24T13:26:47.544Z,5.25
2022-10-24T13:29:23.966Z,3.83
2022-10-24T13:31:53.309Z,5.55
2022-10-24T13:34:24.062Z,7.05
2022-10-24T13:39:49.784Z,4.63
2022-10-24T13:42:24.703Z,9.02
2022-10-24T13:44:54.880Z,7.93
2022-10-24T13:47:43.374Z,6.60
2022-10-24T13:50:25.208Z,9.82
2022-10-24T13:52:58.052Z,5.78
2022-10-24T13:55:29.730Z,7.50
2022-10-24T13:58:00.899Z,6.15
2022-10-24T14:00:30.986Z,5.53
2022-10-24T14:03:01.037Z,5.93
2022-10-24T14:05:35.205Z,5.68
2022-10-24T14:08:02.989Z,5.97
2022-10-24T14:10:31.298Z,6.90
2022-10-24T14:12:59.315Z,45.65
2022-10-24T14:15:33.121Z,99.57
2022-10-24T14:18:13.302Z,88.82
2022-10-24T14:20:41.167Z,24.17
2022-10-24T14:23:38.057Z,12.93
2022-10-24T14:26:08.041Z,5.82
2022-10-24T14:28:45.135Z,5.97
2022-10-24T14:31:31.255Z,6.32
2022-10-24T14:33:58.956Z,5.00
2022-10-24T14:36:31.532Z,5.75
2022-10-24T14:39:01.130Z,8.40
2022-10-24T14:41:40.935Z,6.15
2022-10-24T14:44:08.626Z,8.10
2022-10-24T14:46:38.113Z,7.53
2022-10-24T14:49:38.245Z,7.95
2022-10-24T14:52:36.695Z,7.80
2022-10-24T14:55:13.700Z,8.88
2022-10-24T14:57:46.695Z,11.18
2022-10-24T15:00:20.652Z,7.95
2022-10-24T15:02:49.438Z,6.38
2022-10-24T15:05:20.003Z,9.50
2022-10-24T15:08:09.164Z,5.25
2022-10-24T15:10:41.611Z,22.88
2022-10-24T15:13:25.621Z,18.98
2022-10-24T15:15:58.140Z,17.98
2022-10-24T15:18:30.870Z,10.25
2022-10-24T15:21:01.983Z,11.93
2022-10-24T15:23:35.438Z,11.13
2022-10-24T15:26:20.766Z,15.98
2022-10-24T15:29:12.781Z,15.20
2022-10-24T15:31:42.288Z,15.32
2022-10-24T15:34:20.040Z,11.98
2022-10-24T15:36:48.986Z,12.23
2022-10-24T15:39:22.361Z,25.60
2022-10-24T15:41:51.119Z,17.23
2022-10-24T15:44:26.703Z,16.33
2022-10-24T15:46:55.088Z,14.90
2022-10-24T15:49:22.768Z,14.52
2022-10-24T15:51:50.752Z,15.70
2022-10-24T15:54:21.928Z,14.10
2022-10-24T15:56:50.548Z,13.43
2022-10-24T15:59:20.308Z,13.15
2022-10-24T16:01:58.207Z,14.13
2022-10-24T16:04:26.992Z,14.88
2022-10-24T16:06:56.100Z,14.50
2022-10-24T16:09:27.744Z,11.82
2022-10-24T16:11:55.327Z,10.05
2022-10-24T16:14:26.273Z,13.00
2022-10-24T16:16:55.367Z,13.27
2022-10-24T16:19:25.924Z,12.32
2022-10-24T16:21:58.535Z,14.43
2022-10-24T16:24:26.904Z,13.52
2022-10-24T16:26:55.271Z,19.35
2022-10-24T16:29:22.944Z,18.70
2022-10-24T16:31:51.173Z,12.82
2022-10-24T16:34:19.032Z,18.75
2022-10-24T16:36:47.967Z,12.95
2022-10-24T16:39:16.540Z,14.30
2022-10-24T16:41:46.367Z,10.88
2022-10-24T16:44:20.109Z,13.10
2022-10-24T16:46:48.813Z,8.23
2022-10-24T16:49:21.186Z,12.05
2022-10-24T16:51:49.683Z,12.20
2022-10-24T16:54:19.596Z,11.52
2022-10-24T16:56:53.385Z,10.73
2022-10-24T16:59:21.682Z,16.80
2022-10-24T17:01:49.534Z,12.65
2022-10-24T17:04:17.244Z,15.30
2022-10-24T17:06:46.204Z,20.63
2022-10-24T17:09:14.719Z,28.30
2022-10-24T17:11:46.453Z,16.85
2022-10-24T17:14:14.763Z,20.17
2022-10-24T17:16:43.130Z,18.90
2022-10-24T17:19:17.419Z,18.70
2022-10-24T17:21:48.985Z,15.77
2022-10-24T17:24:18.259Z,13.85
2022-10-24T17:26:46.029Z,10.73
2022-10-24T17:29:25.115Z,17.77
2022-10-24T17:31:54.238Z,15.52
2022-10-24T17:34:22.625Z,18.27
2022-10-24T17:36:54.578Z,15.63
2022-10-24T17:41:57.582Z,21.98
2022-10-24T17:44:25.596Z,13.77
2022-10-24T17:46:57.431Z,17.40
2022-10-24T17:49:27.160Z,16.48
2022-10-24T17:51:54.812Z,27.42
2022-10-24T17:54:22.580Z,30.40
2022-10-24T17:56:50.395Z,17.23
2022-10-24T17:59:18.040Z,27.35
2022-10-24T18:01:45.737Z,24.52
2022-10-24T18:04:13.735Z,19.20
2022-10-24T18:06:43.465Z,20.73
2022-10-24T18:09:11.793Z,19.85
2022-10-24T18:11:40.491Z,26.60
2022-10-24T18:14:08.351Z,22.17
2022-10-24T18:16:38.237Z,19.05
2022-10-24T18:19:07.451Z,24.70
2022-10-24T18:21:36.450Z,21.83
2022-10-24T18:24:06.348Z,23.80
2022-10-24T18:26:34.569Z,21.35
2022-10-24T18:29:02.220Z,26.02
2022-10-24T18:31:30.525Z,18.13
2022-10-24T18:34:04.782Z,27.58
2022-10-24T18:36:36.549Z,30.98
2022-10-24T18:39:04.800Z,27.13
2022-10-24T18:42:05.898Z,29.23
2022-10-24T18:44:35.098Z,25.48
2022-10-24T18:47:04.545Z,25.35
2022-10-24T18:49:33.850Z,29.52
2022-10-24T18:52:10.473Z,24.50
2022-10-24T18:54:59.966Z,24.33
2022-10-24T18:57:31.945Z,23.80
2022-10-24T19:00:00.130Z,22.27
2022-10-24T19:02:32.240Z,22.48
2022-10-24T19:05:18.797Z,24.60
2022-10-24T19:07:47.332Z,43.67
2022-10-24T19:10:20.716Z,32.45
2022-10-24T19:12:49.834Z,37.47
2022-10-24T19:15:18.196Z,41.55
2022-10-24T19:18:06.235Z,45.85
2022-10-24T19:20:35.735Z,72.78
2022-10-24T19:23:07.593Z,57.63
2022-10-24T19:25:35.483Z,44.42
2022-10-24T19:28:03.973Z,52.50
2022-10-24T19:30:31.801Z,43.90
2022-10-24T19:33:01.034Z,55.95
2022-10-24T19:35:28.664Z,78.70
2022-10-24T19:37:56.728Z,62.47
2022-10-24T19:40:24.478Z,67.20
2022-10-24T19:42:52.658Z,63.78
2022-10-24T19:45:22.877Z,51.25
2022-10-24T19:47:56.011Z,60.45
2022-10-24T19:50:24.049Z,56.05
2022-10-24T19:52:52.030Z,59.05
2022-10-24T19:55:19.666Z,58.97
2022-10-24T19:57:47.614Z,64.45
2022-10-24T20:00:15.631Z,57.53
2022-10-24T20:02:43.687Z,55.65
2022-10-24T20:05:11.536Z,56.80
2022-10-24T20:07:39.219Z,52.03
2022-10-24T20:10:08.804Z,50.83
2022-10-24T20:12:36.753Z,54.75
2022-10-24T20:15:05.274Z,50.15
2022-10-24T20:17:32.984Z,47.97
2022-10-24T20:20:00.783Z,55.25
2022-10-24T20:22:29.151Z,46.78
2022-10-24T20:24:57.838Z,42.17
2022-10-24T20:27:25.556Z,44.60
2022-10-24T20:29:53.419Z,48.38
2022-10-24T20:32:21.204Z,51.67
2022-10-24T20:34:48.863Z,46.20
2022-10-24T20:37:17.106Z,43.88
2022-10-24T20:39:44.762Z,44.72
2022-10-24T20:42:12.384Z,39.58
2022-10-24T20:44:41.273Z,42.88
2022-10-24T20:47:08.877Z,44.85
2022-10-24T20:49:36.444Z,54.70
2022-10-24T20:52:04.161Z,44.78
2022-10-24T20:54:32.025Z,47.70
2022-10-24T20:56:59.872Z,46.55
2022-10-24T20:59:27.563Z,52.53
2022-10-24T21:01:55.364Z,53.47
2022-10-24T21:04:23.139Z,45.30
2022-10-24T21:06:50.741Z,46.08
2022-10-24T21:09:18.799Z,39.70
2022-10-24T21:11:50.863Z,44.40
2022-10-24T21:14:20.820Z,40.60
2022-10-24T21:16:49.919Z,36.17
2022-10-24T21:19:17.796Z,30.77
2022-10-24T21:21:46.104Z,30.33
2022-10-24T21:24:15.120Z,32.78
2022-10-24T21:26:43.069Z,29.30
2022-10-24T21:31:58.596Z,31.95
2022-10-24T21:34:27.797Z,34.15
2022-10-24T21:36:59.161Z,28.75
2022-10-24T21:39:26.809Z,32.95
2022-10-24T21:41:54.406Z,28.52
2022-10-24T21:44:23.486Z,37.47
2022-10-24T21:46:52.174Z,34.25
2022-10-24T21:49:20.855Z,32.25
2022-10-24T21:51:48.649Z,31.05
2022-10-24T21:54:19.227Z,33.95
2022-10-24T21:56:47.140Z,36.80
2022-10-24T21:59:16.482Z,33.08
2022-10-24T22:01:45.168Z,33.60
2022-10-24T22:04:13.454Z,34.58
2022-10-24T22:06:42.992Z,36.38
2022-10-24T22:09:13.053Z,31.48
2022-10-24T22:11:41.903Z,32.22
2022-10-24T22:14:10.710Z,37.45
2022-10-24T22:16:40.687Z,37.10
2022-10-24T22:19:08.497Z,37.10
2022-10-24T22:21:37.846Z,41.47
2022-10-24T22:26:35.214Z,34.13
2022-10-24T22:29:03.034Z,37.08
2022-10-24T22:31:31.844Z,28.65
2022-10-24T22:33:59.669Z,30.90
2022-10-24T22:37:01.454Z,28.95
2022-10-24T22:41:57.321Z,33.10
2022-10-24T22:44:25.209Z,33.38
2022-10-24T22:47:19.821Z,38.80
2022-10-24T22:49:59.992Z,33.13
2022-10-24T22:52:28.229Z,35.13
2022-10-24T22:54:57.080Z,30.23
2022-10-24T22:57:25.217Z,32.97
2022-10-24T22:59:53.049Z,34.58
2022-10-24T23:02:27.860Z,29.33
2022-10-24T23:04:58.457Z,38.25
2022-10-24T23:07:42.809Z,30.52
2022-10-24T23:10:11.533Z,32.75
2022-10-24T23:12:42.405Z,24.25
2022-10-24T23:15:13.646Z,29.35
2022-10-24T23:17:41.582Z,31.80
2022-10-24T23:20:17.297Z,36.05
2022-10-24T23:22:46.697Z,33.10
2022-10-24T23:25:18.942Z,33.55
2022-10-24T23:27:47.099Z,35.92
2022-10-24T23:30:17.372Z,46.97
2022-10-24T23:32:46.164Z,41.70
2022-10-24T23:35:14.468Z,33.92
2022-10-24T23:37:43.962Z,40.35
2022-10-24T23:40:11.758Z,38.33
2022-10-24T23:42:39.546Z,39.78
2022-10-24T23:45:12.829Z,47.40
2022-10-24T23:47:59.109Z,37.85
2022-10-24T23:50:34.697Z,35.40
2022-10-24T23:53:23.936Z,34.05
2022-10-24T23:55:51.973Z,39.55
2022-10-24T23:58:19.648Z,50.55
